sensor_id;sensor_type;location;lat;lon;timestamp;temperature;humidity
46492;DHT22;32206;51.446;6.792;2023-02-02T00:02:15;7.70;99.90
46492;DHT22;32206;51.446;6.792;2023-02-02T00:04:41;7.70;99.90
46492;DHT22;32206;51.446;6.792;2023-02-02T00:07:08;7.70;99.90
46492;DHT22;32206;51.446;6.792;2023-02-02T00:09:33;7.60;99.90
46492;DHT22;32206;51.446;6.792;2023-02-02T00:12:00;7.60;99.90
46492;DHT22;32206;51.446;6.792;2023-02-02T00:14:26;8.00;99.90
46492;DHT22;32206;51.446;6.792;2023-02-02T00:16:53;8.00;99.90
46492;DHT22;32206;51.446;6.792;2023-02-02T00:25:56;7.70;99.90
46492;DHT22;32206;51.446;6.792;2023-02-02T00:28:22;7.60;99.90
46492;DHT22;32206;51.446;6.792;2023-02-02T00:30:48;7.60;99.90
46492;DHT22;32206;51.446;6.792;2023-02-02T00:33:13;7.90;99.90
46492;DHT22;32206;51.446;6.792;2023-02-02T00:35:40;7.50;99.90
46492;DHT22;32206;51.446;6.792;2023-02-02T00:38:06;7.60;99.90
46492;DHT22;32206;51.446;6.792;2023-02-02T00:40:31;7.80;99.90
46492;DHT22;32206;51.446;6.792;2023-02-02T00:46:20;7.50;99.90
46492;DHT22;32206;51.446;6.792;2023-02-02T00:49:13;7.50;99.90
46492;DHT22;32206;51.446;6.792;2023-02-02T00:51:39;7.50;99.90
46492;DHT22;32206;51.446;6.792;2023-02-02T00:54:05;7.50;99.90
46492;DHT22;32206;51.446;6.792;2023-02-02T00:56:30;7.70;99.90
46492;DHT22;32206;51.446;6.792;2023-02-02T00:58:56;7.40;99.90
46492;DHT22;32206;51.446;6.792;2023-02-02T01:01:22;7.30;99.90
46492;DHT22;32206;51.446;6.792;2023-02-02T01:03:49;6.90;99.90
46492;DHT22;32206;51.446;6.792;2023-02-02T01:06:15;7.30;99.90
46492;DHT22;32206;51.446;6.792;2023-02-02T01:08:41;7.30;99.90
46492;DHT22;32206;51.446;6.792;2023-02-02T01:11:07;7.30;99.90
46492;DHT22;32206;51.446;6.792;2023-02-02T01:16:58;7.20;99.90
46492;DHT22;32206;51.446;6.792;2023-02-02T01:25:57;7.20;99.90
46492;DHT22;32206;51.446;6.792;2023-02-02T01:28:24;7.60;99.90
46492;DHT22;32206;51.446;6.792;2023-02-02T01:30:50;7.20;99.90
46492;DHT22;32206;51.446;6.792;2023-02-02T01:36:37;7.20;99.90
46492;DHT22;32206;51.446;6.792;2023-02-02T01:39:03;7.20;99.90
46492;DHT22;32206;51.446;6.792;2023-02-02T01:41:29;7.20;99.90
46492;DHT22;32206;51.446;6.792;2023-02-02T01:44:00;7.10;99.90
46492;DHT22;32206;51.446;6.792;2023-02-02T01:46:34;7.10;99.90
46492;DHT22;32206;51.446;6.792;2023-02-02T01:49:16;7.20;99.90
46492;DHT22;32206;51.446;6.792;2023-02-02T01:51:58;7.60;99.90
46492;DHT22;32206;51.446;6.792;2023-02-02T02:01:09;7.30;99.90
46492;DHT22;32206;51.446;6.792;2023-02-02T02:04:06;7.20;99.90
46492;DHT22;32206;51.446;6.792;2023-02-02T02:06:32;7.30;99.90
46492;DHT22;32206;51.446;6.792;2023-02-02T02:09:00;7.30;99.90
46492;DHT22;32206;51.446;6.792;2023-02-02T02:11:28;7.30;99.90
46492;DHT22;32206;51.446;6.792;2023-02-02T02:23:52;7.40;99.90
46492;DHT22;32206;51.446;6.792;2023-02-02T02:30:05;7.30;99.90
46492;DHT22;32206;51.446;6.792;2023-02-02T02:39:56;7.30;99.90
46492;DHT22;32206;51.446;6.792;2023-02-02T02:42:30;7.20;99.90
46492;DHT22;32206;51.446;6.792;2023-02-02T02:45:00;7.80;99.90
46492;DHT22;32206;51.446;6.792;2023-02-02T02:47:28;7.20;99.90
46492;DHT22;32206;51.446;6.792;2023-02-02T02:49:54;7.40;99.90
46492;DHT22;32206;51.446;6.792;2023-02-02T02:52:20;7.10;99.90
46492;DHT22;32206;51.446;6.792;2023-02-02T02:54:52;7.20;99.90
46492;DHT22;32206;51.446;6.792;2023-02-02T03:06:21;7.20;99.90
46492;DHT22;32206;51.446;6.792;2023-02-02T03:08:52;7.20;99.90
46492;DHT22;32206;51.446;6.792;2023-02-02T03:11:20;7.20;99.90
46492;DHT22;32206;51.446;6.792;2023-02-02T03:13:46;7.70;99.90
46492;DHT22;32206;51.446;6.792;2023-02-02T03:16:14;7.20;99.90
46492;DHT22;32206;51.446;6.792;2023-02-02T03:18:40;7.10;99.90
46492;DHT22;32206;51.446;6.792;2023-02-02T03:24:28;7.10;99.90
46492;DHT22;32206;51.446;6.792;2023-02-02T03:26:54;7.20;99.90
46492;DHT22;32206;51.446;6.792;2023-02-02T03:33:19;7.20;99.90
46492;DHT22;32206;51.446;6.792;2023-02-02T03:38:58;7.20;99.90
46492;DHT22;32206;51.446;6.792;2023-02-02T03:41:24;7.20;99.90
46492;DHT22;32206;51.446;6.792;2023-02-02T03:43:49;7.30;99.90
46492;DHT22;32206;51.446;6.792;2023-02-02T03:46:15;7.40;99.90
46492;DHT22;32206;51.446;6.792;2023-02-02T03:48:41;7.30;99.90
46492;DHT22;32206;51.446;6.792;2023-02-02T03:51:08;7.30;99.90
46492;DHT22;32206;51.446;6.792;2023-02-02T03:53:34;7.60;99.90
46492;DHT22;32206;51.446;6.792;2023-02-02T03:59:12;7.30;99.90
46492;DHT22;32206;51.446;6.792;2023-02-02T04:01:37;7.40;99.90
46492;DHT22;32206;51.446;6.792;2023-02-02T04:04:03;7.60;99.90
46492;DHT22;32206;51.446;6.792;2023-02-02T04:07:05;7.20;99.90
46492;DHT22;32206;51.446;6.792;2023-02-02T04:09:31;7.30;99.90
46492;DHT22;32206;51.446;6.792;2023-02-02T04:11:57;7.30;99.90
46492;DHT22;32206;51.446;6.792;2023-02-02T04:24:29;7.40;99.90
46492;DHT22;32206;51.446;6.792;2023-02-02T04:26:55;7.40;99.90
46492;DHT22;32206;51.446;6.792;2023-02-02T04:39:52;7.50;99.90
46492;DHT22;32206;51.446;6.792;2023-02-02T04:42:19;7.50;99.90
46492;DHT22;32206;51.446;6.792;2023-02-02T04:51:29;7.50;99.90
46492;DHT22;32206;51.446;6.792;2023-02-02T04:53:55;7.10;99.90
46492;DHT22;32206;51.446;6.792;2023-02-02T04:56:20;7.50;99.90
46492;DHT22;32206;51.446;6.792;2023-02-02T04:58:53;7.50;99.90
46492;DHT22;32206;51.446;6.792;2023-02-02T05:04:42;7.50;99.90
46492;DHT22;32206;51.446;6.792;2023-02-02T05:10:31;7.50;99.90
46492;DHT22;32206;51.446;6.792;2023-02-02T05:12:56;7.50;99.90
46492;DHT22;32206;51.446;6.792;2023-02-02T05:25:22;7.60;99.90
46492;DHT22;32206;51.446;6.792;2023-02-02T05:27:47;6.30;99.90
46492;DHT22;32206;51.446;6.792;2023-02-02T05:33:25;7.60;99.90
46492;DHT22;32206;51.446;6.792;2023-02-02T05:35:51;7.60;99.90
46492;DHT22;32206;51.446;6.792;2023-02-02T05:38:32;7.70;99.90
46492;DHT22;32206;51.446;6.792;2023-02-02T05:40:58;7.70;99.90
46492;DHT22;32206;51.446;6.792;2023-02-02T05:43:25;7.70;99.90
46492;DHT22;32206;51.446;6.792;2023-02-02T05:45:51;7.70;99.90
46492;DHT22;32206;51.446;6.792;2023-02-02T05:48:17;7.70;99.90
46492;DHT22;32206;51.446;6.792;2023-02-02T05:50:45;7.70;99.90
46492;DHT22;32206;51.446;6.792;2023-02-02T05:59:52;7.70;99.90
46492;DHT22;32206;51.446;6.792;2023-02-02T06:02:18;7.70;99.90
46492;DHT22;32206;51.446;6.792;2023-02-02T06:04:44;7.70;99.90
46492;DHT22;32206;51.446;6.792;2023-02-02T06:10:32;7.70;99.90
46492;DHT22;32206;51.446;6.792;2023-02-02T06:12:57;7.80;99.90
46492;DHT22;32206;51.446;6.792;2023-02-02T06:15:23;7.80;99.90
46492;DHT22;32206;51.446;6.792;2023-02-02T06:17:49;7.90;99.90
46492;DHT22;32206;51.446;6.792;2023-02-02T06:23:37;7.90;99.90
46492;DHT22;32206;51.446;6.792;2023-02-02T06:26:03;7.90;99.90
46492;DHT22;32206;51.446;6.792;2023-02-02T06:31:50;7.90;99.90
46492;DHT22;32206;51.446;6.792;2023-02-02T06:34:16;7.90;99.90
46492;DHT22;32206;51.446;6.792;2023-02-02T06:36:48;7.90;99.90
46492;DHT22;32206;51.446;6.792;2023-02-02T06:52:54;7.90;99.90
46492;DHT22;32206;51.446;6.792;2023-02-02T06:55:20;8.30;99.90
46492;DHT22;32206;51.446;6.792;2023-02-02T06:58:16;7.90;99.90
46492;DHT22;32206;51.446;6.792;2023-02-02T07:07:19;7.90;99.90
46492;DHT22;32206;51.446;6.792;2023-02-02T07:09:45;7.90;99.90
46492;DHT22;32206;51.446;6.792;2023-02-02T07:16:04;7.90;99.90
46492;DHT22;32206;51.446;6.792;2023-02-02T07:18:30;7.90;99.90
46492;DHT22;32206;51.446;6.792;2023-02-02T07:20:59;7.90;99.90
46492;DHT22;32206;51.446;6.792;2023-02-02T07:23:27;7.40;99.90
46492;DHT22;32206;51.446;6.792;2023-02-02T07:26:03;7.80;99.90
46492;DHT22;32206;51.446;6.792;2023-02-02T07:28:30;8.10;99.90
46492;DHT22;32206;51.446;6.792;2023-02-02T07:34:17;7.80;99.90
46492;DHT22;32206;51.446;6.792;2023-02-02T07:36:43;7.90;99.90
46492;DHT22;32206;51.446;6.792;2023-02-02T07:42:50;7.80;99.90
46492;DHT22;32206;51.446;6.792;2023-02-02T07:45:15;7.80;99.90
46492;DHT22;32206;51.446;6.792;2023-02-02T07:51:06;7.80;99.90
46492;DHT22;32206;51.446;6.792;2023-02-02T08:00:34;7.80;99.90
46492;DHT22;32206;51.446;6.792;2023-02-02T08:06:27;7.80;99.90
46492;DHT22;32206;51.446;6.792;2023-02-02T08:08:54;7.80;99.90
46492;DHT22;32206;51.446;6.792;2023-02-02T08:11:21;7.80;99.90
46492;DHT22;32206;51.446;6.792;2023-02-02T08:13:51;7.90;99.90
46492;DHT22;32206;51.446;6.792;2023-02-02T08:23:00;7.70;99.90
46492;DHT22;32206;51.446;6.792;2023-02-02T08:25:26;7.70;99.90
46492;DHT22;32206;51.446;6.792;2023-02-02T08:27:54;7.70;99.90
46492;DHT22;32206;51.446;6.792;2023-02-02T08:30:19;7.70;99.90
46492;DHT22;32206;51.446;6.792;2023-02-02T08:39:17;7.70;99.90
46492;DHT22;32206;51.446;6.792;2023-02-02T08:45:05;7.60;99.90
46492;DHT22;32206;51.446;6.792;2023-02-02T08:54:15;7.60;99.90
46492;DHT22;32206;51.446;6.792;2023-02-02T08:56:40;7.60;99.90
46492;DHT22;32206;51.446;6.792;2023-02-02T08:59:06;7.50;99.90
46492;DHT22;32206;51.446;6.792;2023-02-02T09:01:33;8.00;99.90
46492;DHT22;32206;51.446;6.792;2023-02-02T09:04:07;7.50;99.90
46492;DHT22;32206;51.446;6.792;2023-02-02T09:06:35;7.50;99.90
46492;DHT22;32206;51.446;6.792;2023-02-02T09:09:03;7.80;99.90
46492;DHT22;32206;51.446;6.792;2023-02-02T09:18:13;7.50;99.90
46492;DHT22;32206;51.446;6.792;2023-02-02T09:20:38;7.50;99.90
46492;DHT22;32206;51.446;6.792;2023-02-02T09:23:06;7.50;99.90
46492;DHT22;32206;51.446;6.792;2023-02-02T09:32:16;7.50;99.90
46492;DHT22;32206;51.446;6.792;2023-02-02T09:38:17;7.50;99.90
46492;DHT22;32206;51.446;6.792;2023-02-02T09:40:42;7.50;99.90
46492;DHT22;32206;51.446;6.792;2023-02-02T09:58:44;7.70;99.90
46492;DHT22;32206;51.446;6.792;2023-02-02T10:01:15;7.70;99.90
46492;DHT22;32206;51.446;6.792;2023-02-02T10:07:18;7.80;99.90
46492;DHT22;32206;51.446;6.792;2023-02-02T10:13:09;7.90;99.90
46492;DHT22;32206;51.446;6.792;2023-02-02T10:24:59;8.00;99.90
46492;DHT22;32206;51.446;6.792;2023-02-02T10:34:16;8.10;99.90
46492;DHT22;32206;51.446;6.792;2023-02-02T10:37:05;8.20;99.90
46492;DHT22;32206;51.446;6.792;2023-02-02T10:51:59;8.30;99.90
46492;DHT22;32206;51.446;6.792;2023-02-02T10:54:42;8.30;99.90
46492;DHT22;32206;51.446;6.792;2023-02-02T11:03:36;8.30;99.90
46492;DHT22;32206;51.446;6.792;2023-02-02T11:06:04;8.40;99.90
46492;DHT22;32206;51.446;6.792;2023-02-02T11:08:51;8.40;99.90
46492;DHT22;32206;51.446;6.792;2023-02-02T11:17:47;8.50;99.90
46492;DHT22;32206;51.446;6.792;2023-02-02T11:23:35;8.50;99.90
46492;DHT22;32206;51.446;6.792;2023-02-02T11:26:01;8.50;99.90
46492;DHT22;32206;51.446;6.792;2023-02-02T11:28:33;8.90;99.90
46492;DHT22;32206;51.446;6.792;2023-02-02T11:31:00;8.70;99.90
46492;DHT22;32206;51.446;6.792;2023-02-02T11:40:28;8.50;99.90
46492;DHT22;32206;51.446;6.792;2023-02-02T11:43:03;8.40;99.90
46492;DHT22;32206;51.446;6.792;2023-02-02T11:45:40;8.90;99.90
46492;DHT22;32206;51.446;6.792;2023-02-02T11:48:15;8.40;99.90
46492;DHT22;32206;51.446;6.792;2023-02-02T11:54:06;8.50;99.90
46492;DHT22;32206;51.446;6.792;2023-02-02T12:00:31;8.50;99.90
46492;DHT22;32206;51.446;6.792;2023-02-02T12:02:58;8.50;99.90
46492;DHT22;32206;51.446;6.792;2023-02-02T12:07:49;8.50;99.90
46492;DHT22;32206;51.446;6.792;2023-02-02T12:10:26;8.50;99.90
46492;DHT22;32206;51.446;6.792;2023-02-02T13:03:20;8.60;99.90
46492;DHT22;32206;51.446;6.792;2023-02-02T13:11:38;8.60;99.90
46492;DHT22;32206;51.446;6.792;2023-02-02T13:14:12;8.60;99.90
46492;DHT22;32206;51.446;6.792;2023-02-02T13:16:43;8.60;99.90
46492;DHT22;32206;51.446;6.792;2023-02-02T13:25:29;8.50;99.90
46492;DHT22;32206;51.446;6.792;2023-02-02T13:27:57;8.50;99.90
46492;DHT22;32206;51.446;6.792;2023-02-02T13:30:29;8.40;99.90
46492;DHT22;32206;51.446;6.792;2023-02-02T13:33:11;8.40;99.90
46492;DHT22;32206;51.446;6.792;2023-02-02T13:42:37;8.40;99.90
46492;DHT22;32206;51.446;6.792;2023-02-02T13:47:58;8.40;99.90
46492;DHT22;32206;51.446;6.792;2023-02-02T13:50:26;8.30;99.90
46492;DHT22;32206;51.446;6.792;2023-02-02T13:59:33;8.20;99.90
46492;DHT22;32206;51.446;6.792;2023-02-02T14:02:04;8.10;99.90
46492;DHT22;32206;51.446;6.792;2023-02-02T14:04:32;8.30;99.90
46492;DHT22;32206;51.446;6.792;2023-02-02T14:20:01;8.00;99.90
46492;DHT22;32206;51.446;6.792;2023-02-02T14:22:57;8.00;99.90
46492;DHT22;32206;51.446;6.792;2023-02-02T14:34:43;8.00;99.90
46492;DHT22;32206;51.446;6.792;2023-02-02T14:46:40;8.00;99.90
46492;DHT22;32206;51.446;6.792;2023-02-02T14:49:15;8.10;99.90
46492;DHT22;32206;51.446;6.792;2023-02-02T15:32:18;8.10;99.90
46492;DHT22;32206;51.446;6.792;2023-02-02T15:34:47;8.10;99.90
46492;DHT22;32206;51.446;6.792;2023-02-02T15:47:27;8.10;99.90
46492;DHT22;32206;51.446;6.792;2023-02-02T15:49:54;8.10;99.90
46492;DHT22;32206;51.446;6.792;2023-02-02T15:59:23;8.10;99.90
46492;DHT22;32206;51.446;6.792;2023-02-02T16:02:03;8.00;99.90
46492;DHT22;32206;51.446;6.792;2023-02-02T16:04:35;8.00;99.90
46492;DHT22;32206;51.446;6.792;2023-02-02T16:07:03;8.00;99.90
46492;DHT22;32206;51.446;6.792;2023-02-02T16:09:33;8.00;99.90
46492;DHT22;32206;51.446;6.792;2023-02-02T16:12:00;8.20;99.90
46492;DHT22;32206;51.446;6.792;2023-02-02T16:21:19;7.80;99.90
46492;DHT22;32206;51.446;6.792;2023-02-02T16:27:13;7.80;99.90
46492;DHT22;32206;51.446;6.792;2023-02-02T16:36:27;7.80;99.90
46492;DHT22;32206;51.446;6.792;2023-02-02T16:42:41;7.70;99.90
46492;DHT22;32206;51.446;6.792;2023-02-02T16:45:30;7.80;99.90
46492;DHT22;32206;51.446;6.792;2023-02-02T16:51:22;7.80;99.90
46492;DHT22;32206;51.446;6.792;2023-02-02T17:03:38;7.80;99.90
46492;DHT22;32206;51.446;6.792;2023-02-02T17:06:04;7.70;99.90
46492;DHT22;32206;51.446;6.792;2023-02-02T17:17:44;7.70;99.90
46492;DHT22;32206;51.446;6.792;2023-02-02T17:20:14;8.90;99.90
46492;DHT22;32206;51.446;6.792;2023-02-02T17:22:43;7.70;99.90
46492;DHT22;32206;51.446;6.792;2023-02-02T17:28:32;7.70;99.90
46492;DHT22;32206;51.446;6.792;2023-02-02T17:37:42;7.80;99.90
46492;DHT22;32206;51.446;6.792;2023-02-02T17:40:16;7.80;99.90
46492;DHT22;32206;51.446;6.792;2023-02-02T17:42:43;7.80;99.90
46492;DHT22;32206;51.446;6.792;2023-02-02T17:48:31;7.80;99.90
46492;DHT22;32206;51.446;6.792;2023-02-02T17:50:57;8.20;99.90
46492;DHT22;32206;51.446;6.792;2023-02-02T17:53:22;7.90;99.90
46492;DHT22;32206;51.446;6.792;2023-02-02T17:55:49;7.80;99.90
46492;DHT22;32206;51.446;6.792;2023-02-02T17:58:15;8.30;99.90
46492;DHT22;32206;51.446;6.792;2023-02-02T18:00:45;7.80;99.90
46492;DHT22;32206;51.446;6.792;2023-02-02T18:03:21;8.10;99.90
46492;DHT22;32206;51.446;6.792;2023-02-02T18:05:47;7.80;99.90
46492;DHT22;32206;51.446;6.792;2023-02-02T18:14:58;7.80;99.90
46492;DHT22;32206;51.446;6.792;2023-02-02T18:27:31;7.80;99.90
46492;DHT22;32206;51.446;6.792;2023-02-02T18:29:57;7.90;99.90
46492;DHT22;32206;51.446;6.792;2023-02-02T18:32:22;7.90;99.90
46492;DHT22;32206;51.446;6.792;2023-02-02T18:34:48;7.90;99.90
46492;DHT22;32206;51.446;6.792;2023-02-02T18:37:19;7.90;99.90
46492;DHT22;32206;51.446;6.792;2023-02-02T18:39:44;7.90;99.90
46492;DHT22;32206;51.446;6.792;2023-02-02T18:42:10;7.90;99.90
46492;DHT22;32206;51.446;6.792;2023-02-02T18:44:36;7.90;99.90
46492;DHT22;32206;51.446;6.792;2023-02-02T18:47:07;7.90;99.90
46492;DHT22;32206;51.446;6.792;2023-02-02T18:49:32;8.40;99.90
46492;DHT22;32206;51.446;6.792;2023-02-02T18:51:58;7.90;99.90
46492;DHT22;32206;51.446;6.792;2023-02-02T18:54:23;7.90;99.90
46492;DHT22;32206;51.446;6.792;2023-02-02T18:56:49;8.00;99.90
46492;DHT22;32206;51.446;6.792;2023-02-02T18:59:15;8.00;99.90
46492;DHT22;32206;51.446;6.792;2023-02-02T19:01:40;8.00;99.90
46492;DHT22;32206;51.446;6.792;2023-02-02T19:04:06;8.00;99.90
46492;DHT22;32206;51.446;6.792;2023-02-02T19:06:32;8.30;99.90
46492;DHT22;32206;51.446;6.792;2023-02-02T19:09:16;8.00;99.90
46492;DHT22;32206;51.446;6.792;2023-02-02T19:11:47;8.10;99.90
46492;DHT22;32206;51.446;6.792;2023-02-02T19:14:18;8.00;99.90
46492;DHT22;32206;51.446;6.792;2023-02-02T19:16:47;8.00;99.90
46492;DHT22;32206;51.446;6.792;2023-02-02T19:21:46;8.60;99.90
46492;DHT22;32206;51.446;6.792;2023-02-02T19:24:12;8.00;99.90
46492;DHT22;32206;51.446;6.792;2023-02-02T19:26:43;8.20;99.90
46492;DHT22;32206;51.446;6.792;2023-02-02T19:29:14;8.10;99.90
46492;DHT22;32206;51.446;6.792;2023-02-02T19:31:41;8.10;99.90
46492;DHT22;32206;51.446;6.792;2023-02-02T19:34:11;8.20;99.90
46492;DHT22;32206;51.446;6.792;2023-02-02T19:36:38;8.10;99.90
46492;DHT22;32206;51.446;6.792;2023-02-02T19:39:24;8.10;99.90
46492;DHT22;32206;51.446;6.792;2023-02-02T19:41:56;8.90;99.90
46492;DHT22;32206;51.446;6.792;2023-02-02T19:44:28;8.10;99.90
46492;DHT22;32206;51.446;6.792;2023-02-02T19:46:54;8.10;99.90
46492;DHT22;32206;51.446;6.792;2023-02-02T19:49:31;8.00;99.90
46492;DHT22;32206;51.446;6.792;2023-02-02T19:51:57;8.00;99.90
46492;DHT22;32206;51.446;6.792;2023-02-02T19:57:45;8.00;99.90
46492;DHT22;32206;51.446;6.792;2023-02-02T20:00:18;8.00;99.90
46492;DHT22;32206;51.446;6.792;2023-02-02T20:03:04;8.00;99.90
46492;DHT22;32206;51.446;6.792;2023-02-02T20:05:37;8.00;99.90
46492;DHT22;32206;51.446;6.792;2023-02-02T20:10:58;8.00;99.90
46492;DHT22;32206;51.446;6.792;2023-02-02T20:13:37;7.90;99.90
46492;DHT22;32206;51.446;6.792;2023-02-02T20:16:13;7.90;99.90
46492;DHT22;32206;51.446;6.792;2023-02-02T20:18:44;7.90;99.90
46492;DHT22;32206;51.446;6.792;2023-02-02T20:21:33;8.20;99.90
46492;DHT22;32206;51.446;6.792;2023-02-02T20:23:59;7.90;99.90
46492;DHT22;32206;51.446;6.792;2023-02-02T20:26:25;8.40;99.90
46492;DHT22;32206;51.446;6.792;2023-02-02T20:28:55;8.10;99.90
46492;DHT22;32206;51.446;6.792;2023-02-02T20:31:25;8.00;99.90
46492;DHT22;32206;51.446;6.792;2023-02-02T20:33:54;8.30;99.90
46492;DHT22;32206;51.446;6.792;2023-02-02T20:36:38;8.00;99.90
46492;DHT22;32206;51.446;6.792;2023-02-02T20:41:49;8.00;99.90
46492;DHT22;32206;51.446;6.792;2023-02-02T20:44:16;8.00;99.90
46492;DHT22;32206;51.446;6.792;2023-02-02T20:46:42;8.30;99.90
46492;DHT22;32206;51.446;6.792;2023-02-02T20:49:07;8.00;99.90
46492;DHT22;32206;51.446;6.792;2023-02-02T20:51:33;8.00;99.90
46492;DHT22;32206;51.446;6.792;2023-02-02T20:53:58;8.00;99.90
46492;DHT22;32206;51.446;6.792;2023-02-02T21:03:09;8.10;99.90
46492;DHT22;32206;51.446;6.792;2023-02-02T21:06:12;8.60;99.90
46492;DHT22;32206;51.446;6.792;2023-02-02T21:08:37;8.10;99.90
46492;DHT22;32206;51.446;6.792;2023-02-02T21:11:03;8.20;99.90
46492;DHT22;32206;51.446;6.792;2023-02-02T21:16:51;8.20;99.90
46492;DHT22;32206;51.446;6.792;2023-02-02T21:19:16;8.20;99.90
46492;DHT22;32206;51.446;6.792;2023-02-02T21:21:42;8.20;99.90
46492;DHT22;32206;51.446;6.792;2023-02-02T21:24:08;8.20;99.90
46492;DHT22;32206;51.446;6.792;2023-02-02T21:26:34;8.20;99.90
46492;DHT22;32206;51.446;6.792;2023-02-02T21:28:59;8.20;99.90
46492;DHT22;32206;51.446;6.792;2023-02-02T21:31:25;8.20;99.90
46492;DHT22;32206;51.446;6.792;2023-02-02T21:33:51;8.30;99.90
46492;DHT22;32206;51.446;6.792;2023-02-02T21:39:40;8.20;99.90
46492;DHT22;32206;51.446;6.792;2023-02-02T21:42:21;8.20;99.90
46492;DHT22;32206;51.446;6.792;2023-02-02T21:44:56;8.20;99.90
46492;DHT22;32206;51.446;6.792;2023-02-02T21:47:32;8.20;99.90
46492;DHT22;32206;51.446;6.792;2023-02-02T21:53:24;8.30;99.90
46492;DHT22;32206;51.446;6.792;2023-02-02T22:01:41;8.40;99.90
46492;DHT22;32206;51.446;6.792;2023-02-02T22:07:30;8.40;99.90
46492;DHT22;32206;51.446;6.792;2023-02-02T22:09:57;8.40;99.90
46492;DHT22;32206;51.446;6.792;2023-02-02T22:22:50;8.50;99.90
46492;DHT22;32206;51.446;6.792;2023-02-02T22:32:04;8.50;99.90
46492;DHT22;32206;51.446;6.792;2023-02-02T22:34:42;8.60;99.90
46492;DHT22;32206;51.446;6.792;2023-02-02T22:37:07;8.60;99.90
46492;DHT22;32206;51.446;6.792;2023-02-02T22:39:33;8.60;99.90
46492;DHT22;32206;51.446;6.792;2023-02-02T22:48:47;8.60;99.90
46492;DHT22;32206;51.446;6.792;2023-02-02T22:54:34;8.70;99.90
46492;DHT22;32206;51.446;6.792;2023-02-02T23:00:31;8.70;99.90
46492;DHT22;32206;51.446;6.792;2023-02-02T23:02:58;8.70;99.90
46492;DHT22;32206;51.446;6.792;2023-02-02T23:08:46;8.70;99.90
46492;DHT22;32206;51.446;6.792;2023-02-02T23:11:11;8.80;99.90
46492;DHT22;32206;51.446;6.792;2023-02-02T23:17:05;8.80;99.90
46492;DHT22;32206;51.446;6.792;2023-02-02T23:19:32;8.80;99.90
46492;DHT22;32206;51.446;6.792;2023-02-02T23:21:58;8.80;99.90
46492;DHT22;32206;51.446;6.792;2023-02-02T23:24:23;8.80;99.90
46492;DHT22;32206;51.446;6.792;2023-02-02T23:27:01;8.90;99.90
46492;DHT22;32206;51.446;6.792;2023-02-02T23:29:27;8.90;99.90
46492;DHT22;32206;51.446;6.792;2023-02-02T23:31:53;8.90;99.90
46492;DHT22;32206;51.446;6.792;2023-02-02T23:34:18;8.90;99.90
46492;DHT22;32206;51.446;6.792;2023-02-02T23:36:44;8.90;99.90
46492;DHT22;32206;51.446;6.792;2023-02-02T23:39:09;9.00;99.90
46492;DHT22;32206;51.446;6.792;2023-02-02T23:41:35;8.90;99.90
46492;DHT22;32206;51.446;6.792;2023-02-02T23:47:23;8.90;99.90
46492;DHT22;32206;51.446;6.792;2023-02-02T23:56:29;8.90;99.90
